createdAt,value
2018-02-19T00:00:35.464Z,-1.50
2018-02-19T00:03:03.943Z,-1.40
2018-02-19T00:05:33.081Z,-1.40
2018-02-19T00:08:00.686Z,-1.40
2018-02-19T00:10:28.335Z,-1.40
2018-02-19T00:12:55.953Z,-1.40
2018-02-19T00:15:24.335Z,-1.40
2018-02-19T00:17:52.727Z,-1.40
2018-02-19T00:20:21.094Z,-1.40
2018-02-19T00:22:49.481Z,-1.40
2018-02-19T00:25:17.142Z,-1.40
2018-02-19T00:27:45.506Z,-1.40
2018-02-19T00:30:13.131Z,-1.40
2018-02-19T00:32:40.752Z,-1.50
2018-02-19T00:35:08.369Z,-1.40
2018-02-19T00:37:35.977Z,-1.40
2018-02-19T00:40:03.583Z,-1.40
2018-02-19T00:42:31.197Z,-1.40
2018-02-19T00:45:00.382Z,-1.40
2018-02-19T00:47:28.805Z,-1.40
2018-02-19T00:49:56.403Z,-1.40
2018-02-19T00:52:24.038Z,-1.40
2018-02-19T00:54:51.639Z,-1.40
2018-02-19T00:57:19.246Z,-1.40
2018-02-19T00:59:46.888Z,-1.40
2018-02-19T01:02:14.480Z,-1.50
2018-02-19T01:04:42.183Z,-1.50
2018-02-19T01:07:10.551Z,-1.50
2018-02-19T01:09:38.930Z,-1.50
2018-02-19T01:12:06.568Z,-1.50
2018-02-19T01:14:34.173Z,-1.50
2018-02-19T01:17:02.562Z,-1.50
2018-02-19T01:19:31.005Z,-1.50
2018-02-19T01:21:58.602Z,-1.50
2018-02-19T01:24:27.188Z,-1.60
2018-02-19T01:26:55.565Z,-1.50
2018-02-19T01:29:23.200Z,-1.60
2018-02-19T01:31:50.797Z,-1.60
2018-02-19T01:34:19.895Z,-1.60
2018-02-19T01:36:48.293Z,-1.50
2018-02-19T01:39:16.650Z,-1.50
2018-02-19T01:41:44.279Z,-1.50
2018-02-19T01:44:11.879Z,-1.50
2018-02-19T01:46:39.507Z,-1.50
2018-02-19T01:49:07.275Z,-1.50
2018-02-19T01:51:34.917Z,-1.50
2018-02-19T01:54:03.293Z,-1.50
2018-02-19T01:56:31.702Z,-1.50
2018-02-19T01:58:59.318Z,-1.60
2018-02-19T02:01:26.943Z,-1.60
2018-02-19T02:03:54.643Z,-1.50
2018-02-19T02:06:22.247Z,-1.60
2018-02-19T02:08:49.896Z,-1.60
2018-02-19T02:11:18.266Z,-1.60
2018-02-19T02:13:46.009Z,-1.70
2018-02-19T02:16:13.624Z,-1.70
2018-02-19T02:18:42.038Z,-1.70
2018-02-19T02:21:09.656Z,-1.70
2018-02-19T02:23:37.280Z,-1.70
2018-02-19T02:26:04.895Z,-1.70
2018-02-19T02:28:41.013Z,-1.80
2018-02-19T02:31:08.986Z,-1.80
2018-02-19T02:33:36.661Z,-1.80
2018-02-19T02:36:04.260Z,-1.80
2018-02-19T02:38:32.737Z,-1.80
2018-02-19T02:41:00.363Z,-1.80
2018-02-19T02:43:28.004Z,-1.80
2018-02-19T02:45:56.378Z,-1.80
2018-02-19T02:48:24.813Z,-1.80
2018-02-19T02:50:52.436Z,-1.80
2018-02-19T02:53:20.795Z,-1.80
2018-02-19T02:55:48.423Z,-1.80
2018-02-19T02:58:16.169Z,-1.80
2018-02-19T03:00:43.792Z,-1.80
2018-02-19T03:03:12.175Z,-1.80
2018-02-19T03:05:40.553Z,-1.90
2018-02-19T03:08:08.166Z,-1.90
2018-02-19T03:10:35.784Z,-1.90
2018-02-19T03:13:03.395Z,-1.80
2018-02-19T03:15:31.003Z,-1.80
2018-02-19T03:17:58.639Z,-1.90
2018-02-19T03:20:26.239Z,-1.90
2018-02-19T03:22:53.852Z,-1.80
2018-02-19T03:25:21.465Z,-1.80
2018-02-19T03:27:49.067Z,-1.90
2018-02-19T03:30:16.752Z,-1.90
2018-02-19T03:32:44.351Z,-1.90
2018-02-19T03:35:11.979Z,-1.90
2018-02-19T03:37:40.359Z,-1.90
2018-02-19T03:40:08.723Z,-1.90
2018-02-19T03:42:37.099Z,-1.90
2018-02-19T03:45:05.478Z,-1.90
2018-02-19T03:47:34.614Z,-1.90
2018-02-19T03:50:02.281Z,-1.90
2018-02-19T03:52:29.899Z,-1.90
2018-02-19T03:54:57.525Z,-1.90
2018-02-19T03:57:25.515Z,-1.90
2018-02-19T03:59:53.108Z,-1.90
2018-02-19T04:02:20.694Z,-1.90
2018-02-19T04:04:48.322Z,-1.90
2018-02-19T04:07:15.920Z,-1.90
2018-02-19T04:09:44.292Z,-1.90
2018-02-19T04:12:11.908Z,-2.00
2018-02-19T04:14:39.642Z,-2.00
2018-02-19T04:17:07.246Z,-2.00
2018-02-19T04:19:34.852Z,-2.00
2018-02-19T04:22:02.478Z,-2.10
2018-02-19T04:24:30.087Z,-2.00
2018-02-19T04:26:57.864Z,-2.00
2018-02-19T04:29:26.988Z,-2.10
2018-02-19T04:31:55.008Z,-2.10
2018-02-19T04:34:22.606Z,-2.10
2018-02-19T04:36:50.988Z,-2.00
2018-02-19T04:39:18.606Z,-2.10
2018-02-19T04:41:46.332Z,-2.00
2018-02-19T04:44:24.637Z,-2.00
2018-02-19T04:46:52.448Z,-2.00
2018-02-19T04:49:20.204Z,-2.00
2018-02-19T04:51:47.816Z,-2.00
2018-02-19T04:54:15.462Z,-2.00
2018-02-19T04:56:43.067Z,-2.00
2018-02-19T04:59:10.677Z,-2.00
2018-02-19T05:01:38.300Z,-2.00
2018-02-19T05:04:05.893Z,-2.00
2018-02-19T05:06:34.302Z,-2.00
2018-02-19T05:09:01.910Z,-2.00
2018-02-19T05:11:29.738Z,-1.90
2018-02-19T05:13:57.398Z,-2.00
2018-02-19T05:16:25.744Z,-1.90
2018-02-19T05:18:53.375Z,-2.00
2018-02-19T05:21:20.989Z,-2.00
2018-02-19T05:23:49.468Z,-1.90
2018-02-19T05:26:17.971Z,-1.90
2018-02-19T05:28:45.575Z,-1.90
2018-02-19T05:31:13.284Z,-1.90
2018-02-19T05:33:41.661Z,-1.90
2018-02-19T05:36:10.958Z,-1.90
2018-02-19T05:38:38.577Z,-1.90
2018-02-19T05:41:06.169Z,-1.90
2018-02-19T05:43:33.802Z,-1.90
2018-02-19T05:46:01.417Z,-1.90
2018-02-19T05:48:29.061Z,-1.90
2018-02-19T05:50:56.795Z,-1.80
2018-02-19T05:53:24.415Z,-1.80
2018-02-19T05:55:52.028Z,-1.80
2018-02-19T05:58:19.756Z,-1.80
2018-02-19T06:00:48.143Z,-1.80
2018-02-19T06:03:16.511Z,-1.80
2018-02-19T06:05:44.189Z,-1.90
2018-02-19T06:08:11.807Z,-1.90
2018-02-19T06:10:39.450Z,-1.90
2018-02-19T06:13:07.832Z,-1.90
2018-02-19T06:15:36.202Z,-1.90
2018-02-19T06:18:04.598Z,-1.90
2018-02-19T06:20:32.194Z,-2.00
2018-02-19T06:22:59.796Z,-1.90
2018-02-19T06:25:27.410Z,-2.00
2018-02-19T06:27:55.010Z,-2.00
2018-02-19T06:30:22.644Z,-2.00
2018-02-19T06:32:50.235Z,-1.90
2018-02-19T06:35:18.151Z,-1.90
2018-02-19T06:37:48.945Z,-1.90
2018-02-19T06:40:16.628Z,-1.90
2018-02-19T06:42:44.255Z,-1.80
2018-02-19T06:45:11.952Z,-1.80
2018-02-19T06:47:39.570Z,-1.80
2018-02-19T06:50:07.949Z,-1.80
2018-02-19T06:52:36.340Z,-1.80
2018-02-19T06:55:03.916Z,-1.80
2018-02-19T06:57:31.549Z,-1.70
2018-02-19T06:59:59.147Z,-1.70
2018-02-19T07:02:26.757Z,-1.70
2018-02-19T07:04:54.389Z,-1.70
2018-02-19T07:07:22.008Z,-1.70
2018-02-19T07:09:51.144Z,-1.80
2018-02-19T07:12:18.917Z,-1.70
2018-02-19T07:14:46.538Z,-1.70
2018-02-19T07:17:14.151Z,-1.70
2018-02-19T07:19:41.760Z,-1.60
2018-02-19T07:22:09.377Z,-1.60
2018-02-19T07:24:36.999Z,-1.60
2018-02-19T07:27:06.155Z,-1.60
2018-02-19T07:29:33.879Z,-1.60
2018-02-19T07:32:02.269Z,-1.60
2018-02-19T07:34:30.645Z,-1.50
2018-02-19T07:36:58.253Z,-1.60
2018-02-19T07:39:25.927Z,-1.50
2018-02-19T07:41:53.546Z,-1.50
2018-02-19T07:44:21.957Z,-1.50
2018-02-19T07:46:49.832Z,-1.50
2018-02-19T07:49:17.536Z,-1.40
2018-02-19T07:51:45.132Z,-1.40
2018-02-19T07:54:13.486Z,-1.30
2018-02-19T07:56:41.124Z,-1.30
2018-02-19T07:59:08.822Z,-1.30
2018-02-19T08:01:36.435Z,-1.30
2018-02-19T08:04:04.809Z,-1.30
2018-02-19T08:06:33.182Z,-1.30
2018-02-19T08:09:00.805Z,-1.30
2018-02-19T08:11:28.406Z,-1.30
2018-02-19T08:13:56.029Z,-1.30
2018-02-19T08:16:23.634Z,-1.30
2018-02-19T08:18:52.035Z,-1.40
2018-02-19T08:21:20.411Z,-1.40
2018-02-19T08:23:48.811Z,-1.30
2018-02-19T08:26:17.189Z,-1.30
2018-02-19T08:28:45.550Z,-1.30
2018-02-19T08:31:14.052Z,-1.30
2018-02-19T08:33:42.418Z,-1.30
2018-02-19T08:36:11.549Z,-1.20
2018-02-19T08:38:40.062Z,-1.20
2018-02-19T08:41:07.701Z,-1.20
2018-02-19T08:43:35.295Z,-1.10
2018-02-19T08:46:02.900Z,-1.10
2018-02-19T08:48:30.542Z,-1.10
2018-02-19T08:50:58.149Z,-1.10
2018-02-19T08:53:26.556Z,-1.00
2018-02-19T08:55:54.154Z,-1.00
2018-02-19T08:58:21.779Z,-1.00
2018-02-19T09:00:50.179Z,-1.00
2018-02-19T09:03:17.805Z,-1.00
2018-02-19T09:05:45.449Z,-0.90
2018-02-19T09:08:13.047Z,-0.90
2018-02-19T09:10:41.445Z,-0.90
2018-02-19T09:13:09.067Z,-0.90
2018-02-19T09:15:36.673Z,-0.80
2018-02-19T09:18:05.091Z,-0.80
2018-02-19T09:20:32.699Z,-0.90
2018-02-19T09:23:00.400Z,-0.90
2018-02-19T09:25:28.075Z,-0.90
2018-02-19T09:27:56.063Z,-0.90
2018-02-19T09:30:23.693Z,-0.90
2018-02-19T09:32:52.065Z,-0.80
2018-02-19T09:35:20.481Z,-0.90
2018-02-19T09:37:48.084Z,-0.90
2018-02-19T09:40:15.707Z,-0.80
2018-02-19T09:42:43.360Z,-0.80
2018-02-19T09:45:11.754Z,-0.80
2018-02-19T09:47:39.346Z,-0.80
2018-02-19T09:50:07.199Z,-0.70
2018-02-19T09:52:34.836Z,-0.70
2018-02-19T09:55:03.217Z,-0.60
2018-02-19T09:57:30.896Z,-0.60
2018-02-19T09:59:59.277Z,-0.60
2018-02-19T10:02:27.670Z,-0.60
2018-02-19T10:04:56.068Z,-0.60
2018-02-19T10:07:23.938Z,-0.60
2018-02-19T10:09:51.562Z,-0.60
2018-02-19T10:12:19.930Z,-0.70
2018-02-19T10:14:47.558Z,-0.70
2018-02-19T10:17:15.166Z,-0.60
2018-02-19T10:19:42.759Z,-0.70
2018-02-19T10:22:11.157Z,-0.70
2018-02-19T10:24:38.750Z,-0.70
2018-02-19T10:27:06.403Z,-0.70
2018-02-19T10:29:34.026Z,-0.70
2018-02-19T10:32:02.542Z,-0.70
2018-02-19T10:34:30.160Z,-0.60
2018-02-19T10:36:57.767Z,-0.60
2018-02-19T10:39:26.237Z,-0.60
2018-02-19T10:41:54.617Z,-0.50
2018-02-19T10:44:22.239Z,-0.60
2018-02-19T10:46:49.852Z,-0.60
2018-02-19T10:49:18.241Z,-0.50
2018-02-19T10:51:46.623Z,-0.40
2018-02-19T10:54:14.992Z,-0.50
2018-02-19T10:56:43.403Z,-0.50
2018-02-19T10:59:11.771Z,-0.40
2018-02-19T11:01:40.186Z,-0.40
2018-02-19T11:04:07.785Z,-0.40
2018-02-19T11:06:35.426Z,-0.40
2018-02-19T11:09:03.144Z,-0.50
2018-02-19T11:11:32.279Z,-0.40
2018-02-19T11:13:59.905Z,-0.40
2018-02-19T11:16:29.028Z,-0.50
2018-02-19T11:18:57.403Z,-0.50
2018-02-19T11:21:25.783Z,-0.50
2018-02-19T11:23:54.171Z,-0.40
2018-02-19T11:26:22.536Z,-0.40
2018-02-19T11:28:50.386Z,-0.40
2018-02-19T11:31:17.978Z,-0.40
2018-02-19T11:33:46.362Z,-0.30
2018-02-19T11:36:13.996Z,-0.30
2018-02-19T11:38:41.592Z,-0.30
2018-02-19T11:41:09.997Z,-0.30
2018-02-19T11:43:38.387Z,-0.20
2018-02-19T11:46:06.908Z,-0.20
2018-02-19T11:48:37.144Z,-0.20
2018-02-19T11:51:04.801Z,-0.20
2018-02-19T11:53:32.438Z,-0.20
2018-02-19T11:56:00.082Z,-0.10
2018-02-19T11:58:28.460Z,-0.10
2018-02-19T12:00:56.198Z,-0.10
2018-02-19T12:03:23.834Z,-0.10
2018-02-19T12:05:51.574Z,0.00
2018-02-19T12:08:19.958Z,0.00
2018-02-19T12:10:48.330Z,-0.10
2018-02-19T12:13:16.707Z,-0.10
2018-02-19T12:15:45.096Z,-0.10
2018-02-19T12:18:13.518Z,0.00
2018-02-19T12:20:41.162Z,-0.10
2018-02-19T12:23:09.541Z,0.00
2018-02-19T12:25:37.947Z,0.00
2018-02-19T12:28:05.541Z,0.10
2018-02-19T12:30:33.157Z,0.00
2018-02-19T12:33:01.536Z,0.00
2018-02-19T12:35:29.963Z,0.00
2018-02-19T12:37:57.590Z,0.00
2018-02-19T12:40:26.045Z,0.00
2018-02-19T12:42:53.665Z,0.00
2018-02-19T12:45:21.283Z,0.00
2018-02-19T12:47:50.031Z,0.00
2018-02-19T12:50:18.053Z,0.00
2018-02-19T12:52:45.659Z,0.10
2018-02-19T12:55:13.278Z,0.00
2018-02-19T12:57:40.929Z,0.00
2018-02-19T13:00:08.598Z,0.00
2018-02-19T13:02:36.398Z,0.00
2018-02-19T13:05:03.997Z,0.00
2018-02-19T13:07:31.630Z,0.00
2018-02-19T13:10:00.152Z,0.00
2018-02-19T13:12:28.144Z,-0.10
2018-02-19T13:14:55.774Z,0.00
2018-02-19T13:17:24.148Z,0.00
2018-02-19T13:19:52.587Z,-0.10
2018-02-19T13:22:20.398Z,-0.10
2018-02-19T13:24:49.035Z,-0.10
2018-02-19T13:27:16.641Z,-0.10
2018-02-19T13:29:45.040Z,0.00
2018-02-19T13:32:15.032Z,0.00
2018-02-19T13:34:44.170Z,-0.10
2018-02-19T13:37:12.558Z,0.00
2018-02-19T13:39:40.194Z,-0.10
2018-02-19T13:42:08.701Z,-0.10
2018-02-19T13:44:37.149Z,-0.10
2018-02-19T13:47:04.812Z,-0.10
2018-02-19T13:49:32.570Z,-0.10
2018-02-19T13:52:00.190Z,-0.10
2018-02-19T13:54:28.578Z,-0.20
2018-02-19T13:56:57.178Z,-0.20
2018-02-19T13:59:24.826Z,-0.20
2018-02-19T14:01:53.190Z,-0.30
2018-02-19T14:04:21.580Z,-0.30
2018-02-19T14:06:50.117Z,-0.30
2018-02-19T14:09:17.727Z,-0.40
2018-02-19T14:11:46.157Z,-0.40
2018-02-19T14:14:13.769Z,-0.40
2018-02-19T14:16:42.197Z,-0.40
2018-02-19T14:19:09.821Z,-0.40
2018-02-19T14:21:37.436Z,-0.40
2018-02-19T14:24:05.056Z,-0.40
2018-02-19T14:26:32.687Z,-0.40
2018-02-19T14:29:00.540Z,-0.40
2018-02-19T14:31:28.265Z,-0.40
2018-02-19T14:33:56.013Z,-0.30
2018-02-19T14:36:24.505Z,-0.30
2018-02-19T14:38:52.103Z,-0.30
2018-02-19T14:41:20.599Z,-0.30
2018-02-19T14:43:48.219Z,-0.40
2018-02-19T14:46:15.858Z,-0.40
2018-02-19T14:48:43.457Z,-0.40
2018-02-19T14:51:11.847Z,-0.50
2018-02-19T14:53:40.263Z,-0.50
2018-02-19T14:56:07.874Z,-0.50
2018-02-19T14:58:35.535Z,-0.50
2018-02-19T15:01:04.853Z,-0.50
2018-02-19T15:03:32.512Z,-0.50
2018-02-19T15:06:00.134Z,-0.60
2018-02-19T15:08:27.734Z,-0.60
2018-02-19T15:10:55.367Z,-0.60
2018-02-19T15:13:22.975Z,-0.50
2018-02-19T15:15:50.611Z,-0.60
2018-02-19T15:18:18.236Z,-0.60
2018-02-19T15:20:45.867Z,-0.60
2018-02-19T15:23:13.604Z,-0.60
2018-02-19T15:25:41.256Z,-0.60
2018-02-19T15:28:09.627Z,-0.60
2018-02-19T15:30:37.996Z,-0.60
2018-02-19T15:33:06.396Z,-0.60
2018-02-19T15:35:34.737Z,-0.60
2018-02-19T15:38:02.380Z,-0.60
2018-02-19T15:40:29.972Z,-0.70
2018-02-19T15:42:57.589Z,-0.70
2018-02-19T15:45:25.308Z,-0.60
2018-02-19T15:47:52.978Z,-0.70
2018-02-19T15:50:20.579Z,-0.70
2018-02-19T15:52:49.010Z,-0.70
2018-02-19T15:55:16.622Z,-0.70
2018-02-19T15:57:45.014Z,-0.70
2018-02-19T16:00:13.380Z,-0.80
2018-02-19T16:02:41.783Z,-0.80
2018-02-19T16:05:10.229Z,-0.80
2018-02-19T16:07:37.835Z,-0.80
2018-02-19T16:10:06.261Z,-0.80
2018-02-19T16:12:33.913Z,-0.90
2018-02-19T16:15:01.585Z,-0.80
2018-02-19T16:17:29.399Z,-0.80
2018-02-19T16:19:57.047Z,-0.90
2018-02-19T16:22:24.713Z,-0.90
2018-02-19T16:24:52.342Z,-0.90
2018-02-19T16:27:19.960Z,-0.90
2018-02-19T16:29:48.350Z,-0.90
2018-02-19T16:32:15.979Z,-1.00
2018-02-19T16:34:43.614Z,-1.00
2018-02-19T16:37:11.368Z,-1.00
2018-02-19T16:39:39.828Z,-1.00
2018-02-19T16:42:08.968Z,-1.10
2018-02-19T16:44:36.590Z,-1.10
2018-02-19T16:47:04.202Z,-1.10
2018-02-19T16:49:32.194Z,-1.10
2018-02-19T16:51:59.791Z,-1.10
2018-02-19T16:54:27.396Z,-1.00
2018-02-19T16:56:55.199Z,-1.00
2018-02-19T16:59:30.156Z,-1.10
2018-02-19T17:01:57.786Z,-1.10
2018-02-19T17:04:25.415Z,-1.00
2018-02-19T17:06:53.829Z,-0.90
2018-02-19T17:09:21.479Z,-0.90
2018-02-19T17:11:49.880Z,-1.00
2018-02-19T17:14:17.517Z,-1.00
2018-02-19T17:16:45.879Z,-1.10
2018-02-19T17:19:13.560Z,-1.10
2018-02-19T17:21:41.940Z,-1.10
2018-02-19T17:24:09.548Z,-1.10
2018-02-19T17:26:37.190Z,-1.10
2018-02-19T17:29:05.796Z,-1.00
2018-02-19T17:31:33.440Z,-1.10
2018-02-19T17:34:01.905Z,-1.00
2018-02-19T17:36:31.069Z,-1.10
2018-02-19T17:38:58.709Z,-1.10
2018-02-19T17:41:27.270Z,-1.10
2018-02-19T17:43:54.922Z,-1.10
2018-02-19T17:46:22.544Z,-1.10
2018-02-19T17:48:50.191Z,-1.10
2018-02-19T17:51:17.902Z,-1.10
2018-02-19T17:53:45.619Z,-1.10
2018-02-19T17:56:13.248Z,-1.10
2018-02-19T17:58:41.014Z,-1.10
2018-02-19T18:01:08.669Z,-1.20
2018-02-19T18:03:36.290Z,-1.20
2018-02-19T18:06:04.673Z,-1.10
2018-02-19T18:08:33.076Z,-1.10
2018-02-19T18:11:00.755Z,-1.10
2018-02-19T18:13:29.330Z,-1.10
2018-02-19T18:15:56.998Z,-1.10
2018-02-19T18:18:24.649Z,-1.10
2018-02-19T18:20:52.276Z,-1.10
2018-02-19T18:23:19.918Z,-1.10
2018-02-19T18:25:47.572Z,-1.10
2018-02-19T18:28:15.331Z,-1.10
2018-02-19T18:30:43.157Z,-1.00
2018-02-19T18:33:10.857Z,-1.00
2018-02-19T18:35:38.524Z,-1.00
2018-02-19T18:38:06.186Z,-0.90
2018-02-19T18:40:34.601Z,-0.90
2018-02-19T18:43:02.246Z,-1.00
2018-02-19T18:45:29.972Z,-0.90
2018-02-19T18:47:57.624Z,-1.00
2018-02-19T18:50:25.290Z,-1.00
2018-02-19T18:52:52.962Z,-1.00
2018-02-19T18:55:20.627Z,-1.00
2018-02-19T18:57:48.298Z,-1.00
2018-02-19T19:00:16.077Z,-1.00
2018-02-19T19:02:43.776Z,-1.10
2018-02-19T19:05:12.244Z,-1.10
2018-02-19T19:07:52.485Z,-1.10
2018-02-19T19:10:31.889Z,-1.10
2018-02-19T19:12:59.644Z,-1.10
2018-02-19T19:15:27.385Z,-1.10
2018-02-19T19:17:55.824Z,-1.10
2018-02-19T19:20:23.617Z,-1.10
2018-02-19T19:22:52.147Z,-1.00
2018-02-19T19:25:19.877Z,-1.10
2018-02-19T19:27:47.675Z,-1.10
2018-02-19T19:30:15.451Z,-1.10
2018-02-19T19:32:44.035Z,-1.10
2018-02-19T19:35:11.818Z,-1.10
2018-02-19T19:37:39.542Z,-1.10
2018-02-19T19:40:08.357Z,-1.10
2018-02-19T19:42:36.141Z,-1.10
2018-02-19T19:45:03.910Z,-1.10
2018-02-19T19:47:31.629Z,-1.00
2018-02-19T19:50:00.315Z,-1.00
2018-02-19T19:52:28.980Z,-1.10
2018-02-19T19:54:56.720Z,-1.10
2018-02-19T19:57:24.459Z,-1.00
2018-02-19T19:59:52.959Z,-1.00
2018-02-19T20:02:21.471Z,-1.00
2018-02-19T20:04:49.201Z,-1.00
2018-02-19T20:07:17.740Z,-1.00
2018-02-19T20:09:45.716Z,-1.00
2018-02-19T20:12:13.561Z,-1.00
2018-02-19T20:14:41.445Z,-1.00
2018-02-19T20:17:09.205Z,-1.00
2018-02-19T20:19:36.966Z,-1.10
2018-02-19T20:22:05.248Z,-1.00
2018-02-19T20:24:33.031Z,-1.10
2018-02-19T20:27:00.762Z,-1.00
2018-02-19T20:29:30.539Z,-1.10
2018-02-19T20:31:59.316Z,-1.10
2018-02-19T20:34:27.104Z,-1.10
2018-02-19T20:36:55.662Z,-1.10
2018-02-19T20:39:23.430Z,-1.20
2018-02-19T20:41:51.613Z,-1.20
2018-02-19T20:44:19.342Z,-1.20
2018-02-19T20:46:47.877Z,-1.20
2018-02-19T20:49:15.768Z,-1.20
2018-02-19T20:51:44.954Z,-1.20
2018-02-19T20:54:12.715Z,-1.20
2018-02-19T20:56:40.495Z,-1.20
2018-02-19T20:59:08.265Z,-1.20
2018-02-19T21:01:36.029Z,-1.20
2018-02-19T21:04:05.477Z,-1.20
2018-02-19T21:06:34.929Z,-1.30
2018-02-19T21:09:11.978Z,-1.30
2018-02-19T21:11:41.114Z,-1.20
2018-02-19T21:14:08.836Z,-1.20
2018-02-19T21:16:38.296Z,-1.20
2018-02-19T21:19:06.788Z,-1.20
2018-02-19T21:21:34.525Z,-1.30
2018-02-19T21:24:02.279Z,-1.20
2018-02-19T21:26:30.803Z,-1.20
2018-02-19T21:28:58.494Z,-1.20
2018-02-19T21:31:26.203Z,-1.20
2018-02-19T21:33:54.831Z,-1.00
2018-02-19T21:36:22.543Z,-1.00
2018-02-19T21:38:51.025Z,-1.00
2018-02-19T21:41:19.552Z,-1.10
2018-02-19T21:43:47.545Z,-1.10
2018-02-19T21:46:15.406Z,-1.20
2018-02-19T21:48:43.150Z,-1.20
2018-02-19T21:51:14.200Z,-1.30
2018-02-19T21:53:42.092Z,-1.30
2018-02-19T21:56:09.819Z,-1.30
2018-02-19T21:58:38.528Z,-1.30
2018-02-19T22:01:06.238Z,-1.30
2018-02-19T22:03:33.963Z,-1.30
2018-02-19T22:06:01.650Z,-1.30
2018-02-19T22:08:29.524Z,-1.30
2018-02-19T22:10:57.189Z,-1.30
2018-02-19T22:13:24.898Z,-1.30
2018-02-19T22:15:52.542Z,-1.30
2018-02-19T22:18:20.192Z,-1.30
2018-02-19T22:20:47.831Z,-1.20
2018-02-19T22:23:16.224Z,-1.20
2018-02-19T22:25:43.885Z,-1.20
2018-02-19T22:28:12.264Z,-1.20
2018-02-19T22:30:40.710Z,-1.20
2018-02-19T22:33:08.325Z,-1.20
2018-02-19T22:35:36.700Z,-1.20
2018-02-19T22:38:05.148Z,-1.20
2018-02-19T22:40:32.764Z,-1.20
2018-02-19T22:43:00.516Z,-1.20
2018-02-19T22:45:28.900Z,-1.10
2018-02-19T22:47:57.304Z,-1.10
2018-02-19T22:50:24.978Z,-1.10
2018-02-19T22:52:52.776Z,-1.10
2018-02-19T22:55:20.381Z,-1.10
2018-02-19T22:57:48.977Z,-1.10
2018-02-19T23:00:17.615Z,-1.10
2018-02-19T23:02:45.233Z,-1.10
2018-02-19T23:05:13.626Z,-1.20
2018-02-19T23:07:42.011Z,-1.20
2018-02-19T23:10:09.633Z,-1.20
2018-02-19T23:12:37.249Z,-1.10
2018-02-19T23:15:05.253Z,-1.10
2018-02-19T23:17:32.857Z,-1.10
2018-02-19T23:20:00.477Z,-1.00
2018-02-19T23:22:28.102Z,-1.00
2018-02-19T23:24:56.461Z,-1.00
2018-02-19T23:27:24.079Z,-1.00
2018-02-19T23:29:51.679Z,-1.00
2018-02-19T23:32:19.309Z,-1.00
2018-02-19T23:34:47.086Z,-1.00
2018-02-19T23:37:14.721Z,-0.90
2018-02-19T23:39:43.097Z,-0.90
2018-02-19T23:42:11.521Z,-0.90
2018-02-19T23:44:39.127Z,-0.90
2018-02-19T23:47:06.736Z,-0.90
2018-02-19T23:49:34.370Z,-1.00
2018-02-19T23:52:01.981Z,-1.00
2018-02-19T23:54:35.831Z,-1.00
2018-02-19T23:57:03.437Z,-1.10
2018-02-19T23:59:31.079Z,-1.10
